Mindoro Star — V7RE6 — position and weather

sailwx.info

Track history (hours):
 
Tides and Currents Weather Stations Pressure Air Temp Water Temp Dewpoint Dewpoint Depression Visibility Wind Speed Wind Dir Waves Ship Positions

Mindoro Star

Last reported at 2017-Feb-19 17:30 UTC. Time now 2017-Feb-25 02:23 UTC.
Position N 09°13' W 079°55'.

Length 238 m; draft 11.4 m.

Type: Tanker. MMSI: 538003490.

Date/timePositionNaut miles runAvg speedWind from/ knotsBaromVisibWave heightAir tempDewpointWater temp
2017-Feb-19 17:30N 09°13' W 079°55'1 0.2
2017-Feb-19 14:10N 09°13' W 079°56'0 0.0
2017-Feb-19 13:16N 09°13' W 079°56'0 0.0
2017-Feb-19 12:07N 09°13' W 079°56'0 0.2
2017-Feb-19 11:19N 09°13' W 079°56'3 4.1
2017-Feb-19 10:33N 09°16' W 079°55'0 0.4
2017-Feb-19 09:32N 09°17' W 079°55'1 0.8
2017-Feb-19 08:33N 09°17' W 079°55'5 4.9
2017-Feb-19 07:33N 09°22' W 079°55'5 5.0
2017-Feb-19 06:33N 09°27' W 079°57'0 0.3
2017-Feb-19 05:32N 09°26' W 079°57'0 0.0
2017-Feb-19 04:32N 09°27' W 079°57'0 0.0
2017-Feb-19 03:32N 09°26' W 079°57'0 0.0
2017-Feb-19 02:32N 09°26' W 079°57'0 0.0
2017-Feb-19 01:32N 09°26' W 079°57'0 0.0
2017-Feb-19 00:32N 09°26' W 079°57'0 0.0
2017-Feb-18 23:32N 09°27' W 079°57'0 0.0
2017-Feb-18 22:32N 09°26' W 079°57'0 0.0
2017-Feb-18 21:32N 09°26' W 079°57'0 0.0
2017-Feb-18 20:32N 09°26' W 079°57'0 0.0
2017-Feb-18 19:26N 09°26' W 079°57'0 0.0
2017-Feb-18 18:32N 09°26' W 079°57'0 0.0
2017-Feb-18 17:26N 09°26' W 079°57'0 0.0
2017-Feb-18 16:26N 09°26' W 079°57'0 0.0
2017-Feb-18 15:23N 09°26' W 079°57'0 0.0
2017-Feb-18 14:29N 09°26' W 079°57'0 0.0
2017-Feb-18 13:32N 09°26' W 079°57'0 0.0
2017-Feb-18 12:26N 09°26' W 079°57'0 0.0
2017-Feb-18 08:26N 09°26' W 079°57'0 0.0
2017-Feb-18 07:32N 09°26' W 079°57'0 0.0
2017-Feb-18 06:14N 09°26' W 079°57'0 0.0
2017-Feb-18 05:29N 09°26' W 079°57'0 0.0
2017-Feb-18 04:08N 09°26' W 079°57'0 0.0
2017-Feb-18 03:08N 09°26' W 079°57'0 0.0
2017-Feb-18 02:32N 09°26' W 079°57'0 0.1
2017-Feb-18 01:26N 09°26' W 079°57'0 0.1
2017-Feb-18 00:29N 09°26' W 079°57'0 0.1
2017-Feb-17 23:26N 09°27' W 079°57'0 0.0
2017-Feb-17 22:32N 09°26' W 079°57'0 0.0
2017-Feb-17 21:32N 09°26' W 079°57'0 0.0
2017-Feb-17 20:32N 09°26' W 079°57'0 0.0
2017-Feb-17 19:32N 09°26' W 079°57'0 0.1
2017-Feb-17 18:32N 09°26' W 079°57'0 0.0
2017-Feb-17 17:32N 09°26' W 079°57'0 0.0
2017-Feb-17 16:32N 09°27' W 079°57'0 0.0
2017-Feb-17 15:32N 09°26' W 079°57'0 0.1
2017-Feb-17 14:32N 09°26' W 079°57'0 0.0
2017-Feb-17 13:32N 09°26' W 079°57'0 0.0
2017-Feb-17 12:32N 09°26' W 079°57'0 0.0
2017-Feb-17 11:32N 09°26' W 079°57'0 0.0
2017-Feb-17 10:32N 09°26' W 079°57'0 0.0
2017-Feb-17 09:23N 09°26' W 079°57'0 0.0
2017-Feb-17 08:32N 09°26' W 079°57'0 0.0
2017-Feb-17 07:32N 09°26' W 079°57'0 0.0
2017-Feb-17 06:32N 09°26' W 079°57'0 0.0
2017-Feb-17 05:32N 09°26' W 079°57'0 0.0
2017-Feb-17 04:32N 09°26' W 079°57'0 0.0
2017-Feb-17 03:29N 09°26' W 079°57'0 0.0
2017-Feb-17 02:32N 09°26' W 079°57'0 0.0
2017-Feb-17 01:32N 09°26' W 079°57'0 0.0
2017-Feb-17 00:32N 09°26' W 079°57'0 0.1
2017-Feb-16 23:33N 09°26' W 079°57'  
2017-Feb-13 06:18N 10°56' W 061°54'1012.4
2017-Feb-13 05:31N 10°50' W 061°46'1313.0
2017-Feb-13 04:33N 10°38' W 061°49'1211.6
2017-Feb-13 03:34N 10°27' W 061°45'1111.2
2017-Feb-13 02:34N 10°20' W 061°36'5 4.4
2017-Feb-13 01:29N 10°19' W 061°31'0 0.0
2017-Feb-13 00:32N 10°19' W 061°31'0 0.0
2017-Feb-12 23:23N 10°19' W 061°31'0 0.0
2017-Feb-12 22:29N 10°19' W 061°31'0 0.1
2017-Feb-12 21:32N 10°19' W 061°31'1 1.3
2017-Feb-12 20:33N 10°20' W 061°30'1 1.3
2017-Feb-12 19:28N 10°20' W 061°29'0 0.0
2017-Feb-12 18:28N 10°20' W 061°29'0 0.0
2017-Feb-12 17:31N 10°20' W 061°29'0 0.0
2017-Feb-12 16:31N 10°20' W 061°29'0 0.0
2017-Feb-12 15:31N 10°20' W 061°29'0 0.0
2017-Feb-12 14:28N 10°20' W 061°29'0 0.0
2017-Feb-12 13:28N 10°20' W 061°29'0 0.0
2017-Feb-12 12:28N 10°20' W 061°29'0 0.0
2017-Feb-12 11:28N 10°20' W 061°29'0 0.0
2017-Feb-12 10:28N 10°20' W 061°29'0 0.0
2017-Feb-12 09:28N 10°20' W 061°29'0 0.0
2017-Feb-12 08:31N 10°20' W 061°29'0 0.0
2017-Feb-12 07:31N 10°20' W 061°29'0 0.0
2017-Feb-12 06:31N 10°20' W 061°29'0 0.0
2017-Feb-12 05:28N 10°20' W 061°29'0 0.0
2017-Feb-12 04:28N 10°20' W 061°29'0 0.0
2017-Feb-12 03:28N 10°20' W 061°29'0 0.0
2017-Feb-12 02:28N 10°20' W 061°29'0 0.0
2017-Feb-12 01:28N 10°20' W 061°29'0 0.0
2017-Feb-12 00:28N 10°20' W 061°29'0 0.0
2017-Feb-11 23:28N 10°20' W 061°29'0 0.0
2017-Feb-11 22:28N 10°20' W 061°29'0 0.0
2017-Feb-11 21:28N 10°20' W 061°29'0 0.0
2017-Feb-11 20:28N 10°20' W 061°29'0 0.0
2017-Feb-11 19:28N 10°20' W 061°29'0 0.0
2017-Feb-11 18:28N 10°20' W 061°29'0 0.0
2017-Feb-11 17:28N 10°20' W 061°29'0 0.0
2017-Feb-11 16:22N 10°20' W 061°29'0 0.0
2017-Feb-11 15:28N 10°20' W 061°29'0 0.0
2017-Feb-11 14:28N 10°20' W 061°29'0 0.0
2017-Feb-11 13:28N 10°20' W 061°29'0 0.0
2017-Feb-11 12:28N 10°20' W 061°29'0 0.0
2017-Feb-11 11:28N 10°20' W 061°29'0 0.0
2017-Feb-11 10:22N 10°20' W 061°29'0 0.0
2017-Feb-11 09:28N 10°20' W 061°29'0 0.0
2017-Feb-11 08:22N 10°20' W 061°29'0 0.0
2017-Feb-11 07:28N 10°20' W 061°29'0 0.0
2017-Feb-11 06:28N 10°20' W 061°29'0 0.3
2017-Feb-11 05:33N 10°20' W 061°29'2 1.7
2017-Feb-11 04:30N 10°19' W 061°31'0 0.0
2017-Feb-11 03:12N 10°19' W 061°31'0 0.0
2017-Feb-11 02:30N 10°19' W 061°31'0 0.0
2017-Feb-11 01:06N 10°19' W 061°31'0 0.0
2017-Feb-11 00:33N 10°19' W 061°31'0 0.1
2017-Feb-10 23:09N 10°19' W 061°31'0 0.0
2017-Feb-10 22:33N 10°19' W 061°31'0 0.0
2017-Feb-10 21:33N 10°19' W 061°31'0 0.0
2017-Feb-10 20:27N 10°19' W 061°31'0 0.0
2017-Feb-10 19:33N 10°19' W 061°31'0 0.0
2017-Feb-10 18:33N 10°19' W 061°31'0 0.0
2017-Feb-10 17:30N 10°19' W 061°31'0 0.0
2017-Feb-10 16:30N 10°19' W 061°31'0 0.0
2017-Feb-10 15:24N 10°19' W 061°31'0 0.0
2017-Feb-10 14:30N 10°19' W 061°31'0 0.1
2017-Feb-10 13:12N 10°19' W 061°31'0 0.1
2017-Feb-10 12:12N 10°19' W 061°31'0 0.0
2017-Feb-10 11:30N 10°19' W 061°31'0 0.0
2017-Feb-10 10:30N 10°19' W 061°31'0 0.0
2017-Feb-10 09:33N 10°19' W 061°31'0 0.0
2017-Feb-10 08:33N 10°19' W 061°31'0 0.1
2017-Feb-10 07:33N 10°19' W 061°31'0 0.1
2017-Feb-10 06:33N 10°19' W 061°31'0 0.0
2017-Feb-10 05:33N 10°19' W 061°31'0 0.0
2017-Feb-10 04:33N 10°19' W 061°31'0 0.0
2017-Feb-10 03:33N 10°19' W 061°31'0 0.1
2017-Feb-10 02:33N 10°19' W 061°31'0 0.0
2017-Feb-10 01:30N 10°19' W 061°31'0 0.0
2017-Feb-10 00:33N 10°19' W 061°31'0 0.0
2017-Feb-09 22:27N 10°19' W 061°31'0 0.0
2017-Feb-09 21:15N 10°19' W 061°31'0 0.0
2017-Feb-09 19:27N 10°19' W 061°31'  
Track history (hours):
 
Tides and Currents Weather Stations Pressure Air Temp Water Temp Dewpoint Dewpoint Depression Visibility Wind Speed Wind Dir Waves Ship Positions

Mindoro Star

Last reported at 2017-Feb-19 17:30 UTC. Time now 2017-Feb-25 02:23 UTC.
Position N 09°13' W 079°55'.

Length 238 m; draft 11.4 m.

Type: Tanker. MMSI: 538003490.

Date/timePositionNaut miles runAvg speedWind from/ knotsBaromVisibWave heightAir tempDewpointWater temp
2017-Feb-19 17:30N 09°13' W 079°55'1 0.2
2017-Feb-19 14:10N 09°13' W 079°56'0 0.0
2017-Feb-19 13:16N 09°13' W 079°56'0 0.0
2017-Feb-19 12:07N 09°13' W 079°56'0 0.2
2017-Feb-19 11:19N 09°13' W 079°56'3 4.1
2017-Feb-19 10:33N 09°16' W 079°55'0 0.4
2017-Feb-19 09:32N 09°17' W 079°55'1 0.8
2017-Feb-19 08:33N 09°17' W 079°55'5 4.9
2017-Feb-19 07:33N 09°22' W 079°55'5 5.0
2017-Feb-19 06:33N 09°27' W 079°57'0 0.3
2017-Feb-19 05:32N 09°26' W 079°57'0 0.0
2017-Feb-19 04:32N 09°27' W 079°57'0 0.0
2017-Feb-19 03:32N 09°26' W 079°57'0 0.0
2017-Feb-19 02:32N 09°26' W 079°57'0 0.0
2017-Feb-19 01:32N 09°26' W 079°57'0 0.0
2017-Feb-19 00:32N 09°26' W 079°57'0 0.0
2017-Feb-18 23:32N 09°27' W 079°57'0 0.0
2017-Feb-18 22:32N 09°26' W 079°57'0 0.0
2017-Feb-18 21:32N 09°26' W 079°57'0 0.0
2017-Feb-18 20:32N 09°26' W 079°57'0 0.0
2017-Feb-18 19:26N 09°26' W 079°57'0 0.0
2017-Feb-18 18:32N 09°26' W 079°57'0 0.0
2017-Feb-18 17:26N 09°26' W 079°57'0 0.0
2017-Feb-18 16:26N 09°26' W 079°57'0 0.0
2017-Feb-18 15:23N 09°26' W 079°57'0 0.0
2017-Feb-18 14:29N 09°26' W 079°57'0 0.0
2017-Feb-18 13:32N 09°26' W 079°57'0 0.0
2017-Feb-18 12:26N 09°26' W 079°57'0 0.0
2017-Feb-18 08:26N 09°26' W 079°57'0 0.0
2017-Feb-18 07:32N 09°26' W 079°57'0 0.0
2017-Feb-18 06:14N 09°26' W 079°57'0 0.0
2017-Feb-18 05:29N 09°26' W 079°57'0 0.0
2017-Feb-18 04:08N 09°26' W 079°57'0 0.0
2017-Feb-18 03:08N 09°26' W 079°57'0 0.0
2017-Feb-18 02:32N 09°26' W 079°57'0 0.1
2017-Feb-18 01:26N 09°26' W 079°57'0 0.1
2017-Feb-18 00:29N 09°26' W 079°57'0 0.1
2017-Feb-17 23:26N 09°27' W 079°57'0 0.0
2017-Feb-17 22:32N 09°26' W 079°57'0 0.0
2017-Feb-17 21:32N 09°26' W 079°57'0 0.0
2017-Feb-17 20:32N 09°26' W 079°57'0 0.0
2017-Feb-17 19:32N 09°26' W 079°57'0 0.1
2017-Feb-17 18:32N 09°26' W 079°57'0 0.0
2017-Feb-17 17:32N 09°26' W 079°57'0 0.0
2017-Feb-17 16:32N 09°27' W 079°57'0 0.0
2017-Feb-17 15:32N 09°26' W 079°57'0 0.1
2017-Feb-17 14:32N 09°26' W 079°57'0 0.0
2017-Feb-17 13:32N 09°26' W 079°57'0 0.0
2017-Feb-17 12:32N 09°26' W 079°57'0 0.0
2017-Feb-17 11:32N 09°26' W 079°57'0 0.0
2017-Feb-17 10:32N 09°26' W 079°57'0 0.0
2017-Feb-17 09:23N 09°26' W 079°57'0 0.0
2017-Feb-17 08:32N 09°26' W 079°57'0 0.0
2017-Feb-17 07:32N 09°26' W 079°57'0 0.0
2017-Feb-17 06:32N 09°26' W 079°57'0 0.0
2017-Feb-17 05:32N 09°26' W 079°57'0 0.0
2017-Feb-17 04:32N 09°26' W 079°57'0 0.0
2017-Feb-17 03:29N 09°26' W 079°57'0 0.0
2017-Feb-17 02:32N 09°26' W 079°57'0 0.0
2017-Feb-17 01:32N 09°26' W 079°57'0 0.0
2017-Feb-17 00:32N 09°26' W 079°57'0 0.1
2017-Feb-16 23:33N 09°26' W 079°57'  
2017-Feb-13 06:18N 10°56' W 061°54'1012.4
2017-Feb-13 05:31N 10°50' W 061°46'1313.0
2017-Feb-13 04:33N 10°38' W 061°49'1211.6
2017-Feb-13 03:34N 10°27' W 061°45'1111.2
2017-Feb-13 02:34N 10°20' W 061°36'5 4.4
2017-Feb-13 01:29N 10°19' W 061°31'0 0.0
2017-Feb-13 00:32N 10°19' W 061°31'0 0.0
2017-Feb-12 23:23N 10°19' W 061°31'0 0.0
2017-Feb-12 22:29N 10°19' W 061°31'0 0.1
2017-Feb-12 21:32N 10°19' W 061°31'1 1.3
2017-Feb-12 20:33N 10°20' W 061°30'1 1.3
2017-Feb-12 19:28N 10°20' W 061°29'0 0.0
2017-Feb-12 18:28N 10°20' W 061°29'0 0.0
2017-Feb-12 17:31N 10°20' W 061°29'0 0.0
2017-Feb-12 16:31N 10°20' W 061°29'0 0.0
2017-Feb-12 15:31N 10°20' W 061°29'0 0.0
2017-Feb-12 14:28N 10°20' W 061°29'0 0.0
2017-Feb-12 13:28N 10°20' W 061°29'0 0.0
2017-Feb-12 12:28N 10°20' W 061°29'0 0.0
2017-Feb-12 11:28N 10°20' W 061°29'0 0.0
2017-Feb-12 10:28N 10°20' W 061°29'0 0.0
2017-Feb-12 09:28N 10°20' W 061°29'0 0.0
2017-Feb-12 08:31N 10°20' W 061°29'0 0.0
2017-Feb-12 07:31N 10°20' W 061°29'0 0.0
2017-Feb-12 06:31N 10°20' W 061°29'0 0.0
2017-Feb-12 05:28N 10°20' W 061°29'0 0.0
2017-Feb-12 04:28N 10°20' W 061°29'0 0.0
2017-Feb-12 03:28N 10°20' W 061°29'0 0.0
2017-Feb-12 02:28N 10°20' W 061°29'0 0.0
2017-Feb-12 01:28N 10°20' W 061°29'0 0.0
2017-Feb-12 00:28N 10°20' W 061°29'0 0.0
2017-Feb-11 23:28N 10°20' W 061°29'0 0.0
2017-Feb-11 22:28N 10°20' W 061°29'0 0.0
2017-Feb-11 21:28N 10°20' W 061°29'0 0.0
2017-Feb-11 20:28N 10°20' W 061°29'0 0.0
2017-Feb-11 19:28N 10°20' W 061°29'0 0.0
2017-Feb-11 18:28N 10°20' W 061°29'0 0.0
2017-Feb-11 17:28N 10°20' W 061°29'0 0.0
2017-Feb-11 16:22N 10°20' W 061°29'0 0.0
2017-Feb-11 15:28N 10°20' W 061°29'0 0.0
2017-Feb-11 14:28N 10°20' W 061°29'0 0.0
2017-Feb-11 13:28N 10°20' W 061°29'0 0.0
2017-Feb-11 12:28N 10°20' W 061°29'0 0.0
2017-Feb-11 11:28N 10°20' W 061°29'0 0.0
2017-Feb-11 10:22N 10°20' W 061°29'0 0.0
2017-Feb-11 09:28N 10°20' W 061°29'0 0.0
2017-Feb-11 08:22N 10°20' W 061°29'0 0.0
2017-Feb-11 07:28N 10°20' W 061°29'0 0.0
2017-Feb-11 06:28N 10°20' W 061°29'0 0.3
2017-Feb-11 05:33N 10°20' W 061°29'2 1.7
2017-Feb-11 04:30N 10°19' W 061°31'0 0.0
2017-Feb-11 03:12N 10°19' W 061°31'0 0.0
2017-Feb-11 02:30N 10°19' W 061°31'0 0.0
2017-Feb-11 01:06N 10°19' W 061°31'0 0.0
2017-Feb-11 00:33N 10°19' W 061°31'0 0.1
2017-Feb-10 23:09N 10°19' W 061°31'0 0.0
2017-Feb-10 22:33N 10°19' W 061°31'0 0.0
2017-Feb-10 21:33N 10°19' W 061°31'0 0.0
2017-Feb-10 20:27N 10°19' W 061°31'0 0.0
2017-Feb-10 19:33N 10°19' W 061°31'0 0.0
2017-Feb-10 18:33N 10°19' W 061°31'0 0.0
2017-Feb-10 17:30N 10°19' W 061°31'0 0.0
2017-Feb-10 16:30N 10°19' W 061°31'0 0.0
2017-Feb-10 15:24N 10°19' W 061°31'0 0.0
2017-Feb-10 14:30N 10°19' W 061°31'0 0.1
2017-Feb-10 13:12N 10°19' W 061°31'0 0.1
2017-Feb-10 12:12N 10°19' W 061°31'0 0.0
2017-Feb-10 11:30N 10°19' W 061°31'0 0.0
2017-Feb-10 10:30N 10°19' W 061°31'0 0.0
2017-Feb-10 09:33N 10°19' W 061°31'0 0.0
2017-Feb-10 08:33N 10°19' W 061°31'0 0.1
2017-Feb-10 07:33N 10°19' W 061°31'0 0.1
2017-Feb-10 06:33N 10°19' W 061°31'0 0.0
2017-Feb-10 05:33N 10°19' W 061°31'0 0.0
2017-Feb-10 04:33N 10°19' W 061°31'0 0.0
2017-Feb-10 03:33N 10°19' W 061°31'0 0.1
2017-Feb-10 02:33N 10°19' W 061°31'0 0.0
2017-Feb-10 01:30N 10°19' W 061°31'0 0.0
2017-Feb-10 00:33N 10°19' W 061°31'0 0.0
2017-Feb-09 22:27N 10°19' W 061°31'0 0.0
2017-Feb-09 21:15N 10°19' W 061°31'0 0.0
2017-Feb-09 19:27N 10°19' W 061°31'  

Dump ship's entire track history